sensor_id;sensor_type;location;lat;lon;timestamp;temperature;humidity
49242;DHT22;35079;52.704;13.814;2022-12-11T00:00:10;-0.70;99.90
49242;DHT22;35079;52.704;13.814;2022-12-11T00:02:36;-0.60;99.90
49242;DHT22;35079;52.704;13.814;2022-12-11T00:05:02;-0.70;99.90
49242;DHT22;35079;52.704;13.814;2022-12-11T00:07:28;-0.70;99.90
49242;DHT22;35079;52.704;13.814;2022-12-11T00:09:53;-0.70;99.90
49242;DHT22;35079;52.704;13.814;2022-12-11T00:12:19;-0.70;99.90
49242;DHT22;35079;52.704;13.814;2022-12-11T00:14:44;-0.60;99.90
49242;DHT22;35079;52.704;13.814;2022-12-11T00:17:10;-0.60;99.90
49242;DHT22;35079;52.704;13.814;2022-12-11T00:19:36;-0.60;99.90
49242;DHT22;35079;52.704;13.814;2022-12-11T00:22:01;-0.70;99.90
49242;DHT22;35079;52.704;13.814;2022-12-11T00:24:27;-0.60;99.90
49242;DHT22;35079;52.704;13.814;2022-12-11T00:26:53;-0.60;99.90
49242;DHT22;35079;52.704;13.814;2022-12-11T00:29:18;-0.70;99.90
49242;DHT22;35079;52.704;13.814;2022-12-11T00:31:44;-0.70;99.90
49242;DHT22;35079;52.704;13.814;2022-12-11T00:34:10;-0.70;99.90
49242;DHT22;35079;52.704;13.814;2022-12-11T00:36:36;-0.70;99.90
49242;DHT22;35079;52.704;13.814;2022-12-11T00:39:03;-0.70;99.90
49242;DHT22;35079;52.704;13.814;2022-12-11T00:41:28;-0.60;99.90
49242;DHT22;35079;52.704;13.814;2022-12-11T00:43:54;-0.70;99.90
49242;DHT22;35079;52.704;13.814;2022-12-11T00:46:20;-0.60;99.90
49242;DHT22;35079;52.704;13.814;2022-12-11T00:48:45;-0.70;99.90
49242;DHT22;35079;52.704;13.814;2022-12-11T00:51:12;-0.60;99.90
49242;DHT22;35079;52.704;13.814;2022-12-11T00:53:38;-0.70;99.90
49242;DHT22;35079;52.704;13.814;2022-12-11T00:56:11;-0.60;99.90
49242;DHT22;35079;52.704;13.814;2022-12-11T00:58:37;-0.70;99.90
49242;DHT22;35079;52.704;13.814;2022-12-11T01:01:13;-0.70;99.90
49242;DHT22;35079;52.704;13.814;2022-12-11T01:03:39;-0.80;99.90
49242;DHT22;35079;52.704;13.814;2022-12-11T01:06:05;-0.80;99.90
49242;DHT22;35079;52.704;13.814;2022-12-11T01:08:31;-0.70;99.90
49242;DHT22;35079;52.704;13.814;2022-12-11T01:11:03;-0.70;99.90
49242;DHT22;35079;52.704;13.814;2022-12-11T01:13:29;-0.70;99.90
49242;DHT22;35079;52.704;13.814;2022-12-11T01:15:55;-0.70;99.90
49242;DHT22;35079;52.704;13.814;2022-12-11T01:18:21;-0.70;99.90
49242;DHT22;35079;52.704;13.814;2022-12-11T01:20:46;-0.60;99.90
49242;DHT22;35079;52.704;13.814;2022-12-11T01:23:12;-0.60;99.90
49242;DHT22;35079;52.704;13.814;2022-12-11T01:25:38;-0.60;99.90
49242;DHT22;35079;52.704;13.814;2022-12-11T01:28:04;-0.80;99.90
49242;DHT22;35079;52.704;13.814;2022-12-11T01:30:30;-0.80;99.90
49242;DHT22;35079;52.704;13.814;2022-12-11T01:32:56;-0.80;99.90
49242;DHT22;35079;52.704;13.814;2022-12-11T01:35:22;-0.60;99.90
49242;DHT22;35079;52.704;13.814;2022-12-11T01:37:48;-0.70;99.90
49242;DHT22;35079;52.704;13.814;2022-12-11T01:40:16;-0.60;99.90
49242;DHT22;35079;52.704;13.814;2022-12-11T01:42:42;-0.70;99.90
49242;DHT22;35079;52.704;13.814;2022-12-11T01:45:28;-0.70;99.90
49242;DHT22;35079;52.704;13.814;2022-12-11T01:48:06;-0.80;99.90
49242;DHT22;35079;52.704;13.814;2022-12-11T01:50:40;-0.80;99.90
49242;DHT22;35079;52.704;13.814;2022-12-11T01:53:08;-0.70;99.90
49242;DHT22;35079;52.704;13.814;2022-12-11T01:55:36;-0.80;99.90
49242;DHT22;35079;52.704;13.814;2022-12-11T01:58:03;-0.80;99.90
49242;DHT22;35079;52.704;13.814;2022-12-11T02:00:36;-0.80;99.90
49242;DHT22;35079;52.704;13.814;2022-12-11T02:03:01;-0.80;99.90
49242;DHT22;35079;52.704;13.814;2022-12-11T02:05:27;-0.80;99.90
49242;DHT22;35079;52.704;13.814;2022-12-11T02:07:56;-0.80;99.90
49242;DHT22;35079;52.704;13.814;2022-12-11T02:11:01;-0.80;99.90
49242;DHT22;35079;52.704;13.814;2022-12-11T02:16:25;-0.80;99.90
49242;DHT22;35079;52.704;13.814;2022-12-11T02:19:07;-0.80;99.90
49242;DHT22;35079;52.704;13.814;2022-12-11T02:21:44;-0.80;99.90
49242;DHT22;35079;52.704;13.814;2022-12-11T02:24:40;-0.80;99.90
49242;DHT22;35079;52.704;13.814;2022-12-11T02:27:19;-0.70;99.90
49242;DHT22;35079;52.704;13.814;2022-12-11T02:30:14;-0.70;99.90
49242;DHT22;35079;52.704;13.814;2022-12-11T02:33:09;-0.60;99.90
49242;DHT22;35079;52.704;13.814;2022-12-11T02:35:39;-0.80;99.90
49242;DHT22;35079;52.704;13.814;2022-12-11T02:38:16;-0.80;99.90
49242;DHT22;35079;52.704;13.814;2022-12-11T02:40:43;-0.80;99.90
49242;DHT22;35079;52.704;13.814;2022-12-11T02:43:12;-0.70;99.90
49242;DHT22;35079;52.704;13.814;2022-12-11T02:45:41;-0.80;99.90
49242;DHT22;35079;52.704;13.814;2022-12-11T02:48:09;-0.70;99.90
49242;DHT22;35079;52.704;13.814;2022-12-11T02:50:41;-0.80;99.90
49242;DHT22;35079;52.704;13.814;2022-12-11T02:53:10;-0.80;99.90
49242;DHT22;35079;52.704;13.814;2022-12-11T02:55:37;-0.80;99.90
49242;DHT22;35079;52.704;13.814;2022-12-11T02:58:10;-0.70;99.90
49242;DHT22;35079;52.704;13.814;2022-12-11T03:00:37;-0.70;99.90
49242;DHT22;35079;52.704;13.814;2022-12-11T03:03:03;-0.70;99.90
49242;DHT22;35079;52.704;13.814;2022-12-11T03:05:29;-0.70;99.90
49242;DHT22;35079;52.704;13.814;2022-12-11T03:07:55;-0.60;99.90
49242;DHT22;35079;52.704;13.814;2022-12-11T03:10:21;-0.70;99.90
49242;DHT22;35079;52.704;13.814;2022-12-11T03:12:49;-0.70;99.90
49242;DHT22;35079;52.704;13.814;2022-12-11T03:15:18;-0.60;99.90
49242;DHT22;35079;52.704;13.814;2022-12-11T03:17:53;-0.70;99.90
49242;DHT22;35079;52.704;13.814;2022-12-11T03:20:38;-0.70;99.90
49242;DHT22;35079;52.704;13.814;2022-12-11T03:25:45;-0.70;99.90
49242;DHT22;35079;52.704;13.814;2022-12-11T03:28:15;-0.80;99.90
49242;DHT22;35079;52.704;13.814;2022-12-11T03:30:44;-0.70;99.90
49242;DHT22;35079;52.704;13.814;2022-12-11T03:33:17;-0.70;99.90
49242;DHT22;35079;52.704;13.814;2022-12-11T03:36:02;-0.60;99.90
49242;DHT22;35079;52.704;13.814;2022-12-11T03:38:37;-0.70;99.90
49242;DHT22;35079;52.704;13.814;2022-12-11T03:41:06;-0.60;99.90
49242;DHT22;35079;52.704;13.814;2022-12-11T03:43:34;-0.70;99.90
49242;DHT22;35079;52.704;13.814;2022-12-11T03:46:01;-0.60;99.90
49242;DHT22;35079;52.704;13.814;2022-12-11T03:48:30;-0.70;99.90
49242;DHT22;35079;52.704;13.814;2022-12-11T03:50:58;-0.60;99.90
49242;DHT22;35079;52.704;13.814;2022-12-11T03:53:26;-0.80;99.90
49242;DHT22;35079;52.704;13.814;2022-12-11T03:55:53;-0.70;99.90
49242;DHT22;35079;52.704;13.814;2022-12-11T03:58:20;-0.70;99.90
49242;DHT22;35079;52.704;13.814;2022-12-11T04:00:46;-0.80;99.90
49242;DHT22;35079;52.704;13.814;2022-12-11T04:03:11;-0.80;99.90
49242;DHT22;35079;52.704;13.814;2022-12-11T04:05:38;-0.70;99.90
49242;DHT22;35079;52.704;13.814;2022-12-11T04:08:03;-0.90;99.90
49242;DHT22;35079;52.704;13.814;2022-12-11T04:10:29;-0.80;99.90
49242;DHT22;35079;52.704;13.814;2022-12-11T04:12:55;-0.80;99.90
49242;DHT22;35079;52.704;13.814;2022-12-11T04:15:20;-0.80;99.90
49242;DHT22;35079;52.704;13.814;2022-12-11T04:17:46;-0.90;99.90
49242;DHT22;35079;52.704;13.814;2022-12-11T04:20:30;-0.90;99.90
49242;DHT22;35079;52.704;13.814;2022-12-11T04:23:16;-0.90;99.90
49242;DHT22;35079;52.704;13.814;2022-12-11T04:26:06;-0.80;99.90
49242;DHT22;35079;52.704;13.814;2022-12-11T04:28:33;-0.80;99.90
49242;DHT22;35079;52.704;13.814;2022-12-11T04:30:58;-0.80;99.90
49242;DHT22;35079;52.704;13.814;2022-12-11T04:33:24;-0.90;99.90
49242;DHT22;35079;52.704;13.814;2022-12-11T04:35:50;-0.90;99.90
49242;DHT22;35079;52.704;13.814;2022-12-11T04:38:15;-0.90;99.90
49242;DHT22;35079;52.704;13.814;2022-12-11T04:40:41;-0.90;99.90
49242;DHT22;35079;52.704;13.814;2022-12-11T04:43:06;-0.90;99.90
49242;DHT22;35079;52.704;13.814;2022-12-11T04:45:32;-1.00;99.90
49242;DHT22;35079;52.704;13.814;2022-12-11T04:47:58;-1.00;99.90
49242;DHT22;35079;52.704;13.814;2022-12-11T04:50:24;-1.00;99.90
49242;DHT22;35079;52.704;13.814;2022-12-11T04:52:53;-1.00;99.90
49242;DHT22;35079;52.704;13.814;2022-12-11T04:55:18;-0.90;99.90
49242;DHT22;35079;52.704;13.814;2022-12-11T04:57:44;-1.00;99.90
49242;DHT22;35079;52.704;13.814;2022-12-11T05:00:10;-0.90;99.90
49242;DHT22;35079;52.704;13.814;2022-12-11T05:02:37;-0.90;99.90
49242;DHT22;35079;52.704;13.814;2022-12-11T05:05:04;-1.00;99.90
49242;DHT22;35079;52.704;13.814;2022-12-11T05:07:30;-1.00;99.90
49242;DHT22;35079;52.704;13.814;2022-12-11T05:09:56;-1.00;99.90
49242;DHT22;35079;52.704;13.814;2022-12-11T05:12:21;-1.10;99.90
49242;DHT22;35079;52.704;13.814;2022-12-11T05:14:50;-1.10;99.90
49242;DHT22;35079;52.704;13.814;2022-12-11T05:17:16;-1.20;99.90
49242;DHT22;35079;52.704;13.814;2022-12-11T05:19:42;-1.20;99.90
49242;DHT22;35079;52.704;13.814;2022-12-11T05:22:07;-1.30;99.90
49242;DHT22;35079;52.704;13.814;2022-12-11T05:24:33;-1.20;99.90
49242;DHT22;35079;52.704;13.814;2022-12-11T05:26:58;-1.20;99.90
49242;DHT22;35079;52.704;13.814;2022-12-11T05:29:24;-1.20;99.90
49242;DHT22;35079;52.704;13.814;2022-12-11T05:31:49;-1.20;99.90
49242;DHT22;35079;52.704;13.814;2022-12-11T05:34:15;-1.20;99.90
49242;DHT22;35079;52.704;13.814;2022-12-11T05:36:41;-1.30;99.90
49242;DHT22;35079;52.704;13.814;2022-12-11T05:39:07;-1.30;99.90
49242;DHT22;35079;52.704;13.814;2022-12-11T05:41:34;-1.40;99.90
49242;DHT22;35079;52.704;13.814;2022-12-11T05:43:59;-1.40;99.90
49242;DHT22;35079;52.704;13.814;2022-12-11T05:46:28;-1.40;99.90
49242;DHT22;35079;52.704;13.814;2022-12-11T05:48:59;-1.40;99.90
49242;DHT22;35079;52.704;13.814;2022-12-11T05:51:26;-1.30;99.90
49242;DHT22;35079;52.704;13.814;2022-12-11T05:53:53;-1.40;99.90
49242;DHT22;35079;52.704;13.814;2022-12-11T05:56:30;-1.40;99.90
49242;DHT22;35079;52.704;13.814;2022-12-11T05:58:57;-1.40;99.90
49242;DHT22;35079;52.704;13.814;2022-12-11T06:01:36;-1.40;99.90
49242;DHT22;35079;52.704;13.814;2022-12-11T06:04:04;-1.50;99.90
49242;DHT22;35079;52.704;13.814;2022-12-11T06:06:31;-1.50;99.90
49242;DHT22;35079;52.704;13.814;2022-12-11T06:08:58;-1.50;99.90
49242;DHT22;35079;52.704;13.814;2022-12-11T06:11:24;-1.40;99.90
49242;DHT22;35079;52.704;13.814;2022-12-11T06:13:51;-1.50;99.90
49242;DHT22;35079;52.704;13.814;2022-12-11T06:16:17;-1.50;99.90
49242;DHT22;35079;52.704;13.814;2022-12-11T06:18:43;-1.50;99.90
49242;DHT22;35079;52.704;13.814;2022-12-11T06:23:41;-1.50;99.90
49242;DHT22;35079;52.704;13.814;2022-12-11T06:26:08;-1.50;99.90
49242;DHT22;35079;52.704;13.814;2022-12-11T06:28:34;-1.50;99.90
49242;DHT22;35079;52.704;13.814;2022-12-11T06:31:00;-1.50;99.90
49242;DHT22;35079;52.704;13.814;2022-12-11T06:33:26;-1.60;99.90
49242;DHT22;35079;52.704;13.814;2022-12-11T06:35:52;-1.60;99.90
49242;DHT22;35079;52.704;13.814;2022-12-11T06:38:17;-1.60;99.90
49242;DHT22;35079;52.704;13.814;2022-12-11T06:40:43;-1.60;99.90
49242;DHT22;35079;52.704;13.814;2022-12-11T06:43:08;-1.60;99.90
49242;DHT22;35079;52.704;13.814;2022-12-11T06:45:36;-1.50;99.90
49242;DHT22;35079;52.704;13.814;2022-12-11T06:48:02;-1.50;99.90
49242;DHT22;35079;52.704;13.814;2022-12-11T06:50:28;-1.40;99.90
49242;DHT22;35079;52.704;13.814;2022-12-11T06:52:55;-1.40;99.90
49242;DHT22;35079;52.704;13.814;2022-12-11T06:55:21;-1.50;99.90
49242;DHT22;35079;52.704;13.814;2022-12-11T06:57:47;-1.40;99.90
49242;DHT22;35079;52.704;13.814;2022-12-11T07:00:13;-1.40;99.90
49242;DHT22;35079;52.704;13.814;2022-12-11T07:02:39;-1.40;99.90
49242;DHT22;35079;52.704;13.814;2022-12-11T07:05:05;-1.50;99.90
49242;DHT22;35079;52.704;13.814;2022-12-11T07:07:31;-1.40;99.90
49242;DHT22;35079;52.704;13.814;2022-12-11T07:09:57;-1.40;99.90
49242;DHT22;35079;52.704;13.814;2022-12-11T07:12:22;-1.40;99.90
49242;DHT22;35079;52.704;13.814;2022-12-11T07:14:48;-1.50;99.90
49242;DHT22;35079;52.704;13.814;2022-12-11T07:17:14;-1.40;99.90
49242;DHT22;35079;52.704;13.814;2022-12-11T07:19:39;-1.40;99.90
49242;DHT22;35079;52.704;13.814;2022-12-11T07:22:05;-1.50;99.90
49242;DHT22;35079;52.704;13.814;2022-12-11T07:24:31;-1.40;99.90
49242;DHT22;35079;52.704;13.814;2022-12-11T07:26:57;-1.50;99.90
49242;DHT22;35079;52.704;13.814;2022-12-11T07:29:22;-1.40;99.90
49242;DHT22;35079;52.704;13.814;2022-12-11T07:31:48;-1.40;99.90
49242;DHT22;35079;52.704;13.814;2022-12-11T07:34:15;-1.50;99.90
49242;DHT22;35079;52.704;13.814;2022-12-11T07:36:41;-1.40;99.90
49242;DHT22;35079;52.704;13.814;2022-12-11T07:39:10;-1.50;99.90
49242;DHT22;35079;52.704;13.814;2022-12-11T07:41:36;-1.50;99.90
49242;DHT22;35079;52.704;13.814;2022-12-11T07:44:02;-1.40;99.90
49242;DHT22;35079;52.704;13.814;2022-12-11T07:46:30;-1.30;99.90
49242;DHT22;35079;52.704;13.814;2022-12-11T07:48:56;-1.30;99.90
49242;DHT22;35079;52.704;13.814;2022-12-11T07:51:28;-1.40;99.90
49242;DHT22;35079;52.704;13.814;2022-12-11T07:53:56;-1.40;99.90
49242;DHT22;35079;52.704;13.814;2022-12-11T07:56:22;-1.40;99.90
49242;DHT22;35079;52.704;13.814;2022-12-11T07:58:48;-1.30;99.90
49242;DHT22;35079;52.704;13.814;2022-12-11T08:01:16;-1.30;99.90
49242;DHT22;35079;52.704;13.814;2022-12-11T08:03:42;-1.30;99.90
49242;DHT22;35079;52.704;13.814;2022-12-11T08:06:10;-1.20;99.90
49242;DHT22;35079;52.704;13.814;2022-12-11T08:08:36;-1.20;99.90
49242;DHT22;35079;52.704;13.814;2022-12-11T08:11:03;-1.20;99.90
49242;DHT22;35079;52.704;13.814;2022-12-11T08:13:29;-1.30;99.90
49242;DHT22;35079;52.704;13.814;2022-12-11T08:15:55;-1.20;99.90
49242;DHT22;35079;52.704;13.814;2022-12-11T08:18:20;-1.20;99.90
49242;DHT22;35079;52.704;13.814;2022-12-11T08:20:46;-1.20;99.90
49242;DHT22;35079;52.704;13.814;2022-12-11T08:23:11;-1.20;99.90
49242;DHT22;35079;52.704;13.814;2022-12-11T08:25:37;-1.20;99.90
49242;DHT22;35079;52.704;13.814;2022-12-11T08:28:03;-1.10;99.90
49242;DHT22;35079;52.704;13.814;2022-12-11T08:30:29;-1.20;99.90
49242;DHT22;35079;52.704;13.814;2022-12-11T08:32:54;-1.30;99.90
49242;DHT22;35079;52.704;13.814;2022-12-11T08:35:20;-1.20;99.90
49242;DHT22;35079;52.704;13.814;2022-12-11T08:37:46;-1.20;99.90
49242;DHT22;35079;52.704;13.814;2022-12-11T08:40:37;-1.20;99.90
49242;DHT22;35079;52.704;13.814;2022-12-11T08:43:02;-1.10;99.90
49242;DHT22;35079;52.704;13.814;2022-12-11T08:45:28;-1.10;99.90
49242;DHT22;35079;52.704;13.814;2022-12-11T08:47:54;-1.10;99.90
49242;DHT22;35079;52.704;13.814;2022-12-11T08:50:19;-1.10;99.90
49242;DHT22;35079;52.704;13.814;2022-12-11T08:52:45;-1.10;99.90
49242;DHT22;35079;52.704;13.814;2022-12-11T08:55:11;-1.00;99.90
49242;DHT22;35079;52.704;13.814;2022-12-11T08:57:37;-1.10;99.90
49242;DHT22;35079;52.704;13.814;2022-12-11T09:00:08;-1.00;99.90
49242;DHT22;35079;52.704;13.814;2022-12-11T09:02:34;-1.00;99.90
49242;DHT22;35079;52.704;13.814;2022-12-11T09:04:59;-0.90;99.90
49242;DHT22;35079;52.704;13.814;2022-12-11T09:07:25;-1.00;99.90
49242;DHT22;35079;52.704;13.814;2022-12-11T09:09:53;-0.80;99.90
49242;DHT22;35079;52.704;13.814;2022-12-11T09:12:19;-1.00;99.90
49242;DHT22;35079;52.704;13.814;2022-12-11T09:14:45;-0.90;99.90
49242;DHT22;35079;52.704;13.814;2022-12-11T09:17:11;-1.10;99.90
49242;DHT22;35079;52.704;13.814;2022-12-11T09:19:36;-1.00;99.90
49242;DHT22;35079;52.704;13.814;2022-12-11T09:22:02;-0.90;99.90
49242;DHT22;35079;52.704;13.814;2022-12-11T09:24:27;-0.90;99.90
49242;DHT22;35079;52.704;13.814;2022-12-11T09:26:53;-0.90;99.90
49242;DHT22;35079;52.704;13.814;2022-12-11T09:29:19;-0.90;99.90
49242;DHT22;35079;52.704;13.814;2022-12-11T09:31:45;-0.90;99.90
49242;DHT22;35079;52.704;13.814;2022-12-11T09:34:12;-0.90;99.90
49242;DHT22;35079;52.704;13.814;2022-12-11T09:36:39;-0.80;99.90
49242;DHT22;35079;52.704;13.814;2022-12-11T09:39:06;-0.90;99.90
49242;DHT22;35079;52.704;13.814;2022-12-11T09:41:59;-0.80;99.90
49242;DHT22;35079;52.704;13.814;2022-12-11T09:44:44;-0.80;99.90
49242;DHT22;35079;52.704;13.814;2022-12-11T09:47:41;-0.90;99.90
49242;DHT22;35079;52.704;13.814;2022-12-11T09:50:22;-0.90;99.90
49242;DHT22;35079;52.704;13.814;2022-12-11T10:01:53;-0.70;99.90
49242;DHT22;35079;52.704;13.814;2022-12-11T10:07:39;-0.70;99.90
49242;DHT22;35079;52.704;13.814;2022-12-11T10:13:00;-0.60;99.90
49242;DHT22;35079;52.704;13.814;2022-12-11T10:15:38;-0.80;99.90
49242;DHT22;35079;52.704;13.814;2022-12-11T10:18:12;-0.70;99.90
49242;DHT22;35079;52.704;13.814;2022-12-11T10:20:38;-0.70;99.90
49242;DHT22;35079;52.704;13.814;2022-12-11T10:23:07;-0.70;99.90
49242;DHT22;35079;52.704;13.814;2022-12-11T10:25:49;-0.90;99.90
49242;DHT22;35079;52.704;13.814;2022-12-11T10:28:18;-0.80;99.90
49242;DHT22;35079;52.704;13.814;2022-12-11T10:36:27;-0.90;99.90
49242;DHT22;35079;52.704;13.814;2022-12-11T10:38:53;-0.80;99.90
49242;DHT22;35079;52.704;13.814;2022-12-11T10:41:22;-0.80;99.90
49242;DHT22;35079;52.704;13.814;2022-12-11T10:43:51;-0.70;99.90
49242;DHT22;35079;52.704;13.814;2022-12-11T10:46:23;-0.60;99.90
49242;DHT22;35079;52.704;13.814;2022-12-11T10:48:52;-0.50;99.90
49242;DHT22;35079;52.704;13.814;2022-12-11T10:51:21;-0.50;99.90
49242;DHT22;35079;52.704;13.814;2022-12-11T10:53:56;-0.40;99.90
49242;DHT22;35079;52.704;13.814;2022-12-11T10:56:31;-0.50;99.90
49242;DHT22;35079;52.704;13.814;2022-12-11T10:58:57;-0.40;99.90
49242;DHT22;35079;52.704;13.814;2022-12-11T11:01:26;-0.40;99.90
49242;DHT22;35079;52.704;13.814;2022-12-11T11:04:14;-0.30;99.90
49242;DHT22;35079;52.704;13.814;2022-12-11T11:06:40;-0.40;99.90
49242;DHT22;35079;52.704;13.814;2022-12-11T11:09:32;-0.60;99.90
49242;DHT22;35079;52.704;13.814;2022-12-11T11:11:58;-0.60;99.90
49242;DHT22;35079;52.704;13.814;2022-12-11T11:14:24;-0.70;99.90
49242;DHT22;35079;52.704;13.814;2022-12-11T11:16:53;-0.50;99.90
49242;DHT22;35079;52.704;13.814;2022-12-11T11:19:34;-0.70;99.90
49242;DHT22;35079;52.704;13.814;2022-12-11T11:22:04;-0.50;99.90
49242;DHT22;35079;52.704;13.814;2022-12-11T11:27:10;-0.30;99.90
49242;DHT22;35079;52.704;13.814;2022-12-11T11:29:37;-0.40;99.90
49242;DHT22;35079;52.704;13.814;2022-12-11T11:32:41;-0.40;99.90
49242;DHT22;35079;52.704;13.814;2022-12-11T11:37:37;-0.50;99.90
49242;DHT22;35079;52.704;13.814;2022-12-11T11:40:20;-0.40;99.90
49242;DHT22;35079;52.704;13.814;2022-12-11T11:45:51;-0.40;99.90
49242;DHT22;35079;52.704;13.814;2022-12-11T11:48:37;-0.30;99.90
49242;DHT22;35079;52.704;13.814;2022-12-11T11:51:14;-0.30;99.90
49242;DHT22;35079;52.704;13.814;2022-12-11T11:53:40;-0.30;99.90
49242;DHT22;35079;52.704;13.814;2022-12-11T11:56:24;-0.20;99.90
49242;DHT22;35079;52.704;13.814;2022-12-11T12:01:25;-0.20;99.90
49242;DHT22;35079;52.704;13.814;2022-12-11T12:03:51;-0.20;99.90
49242;DHT22;35079;52.704;13.814;2022-12-11T12:12:05;-0.20;99.90
49242;DHT22;35079;52.704;13.814;2022-12-11T12:17:33;-0.20;99.90
49242;DHT22;35079;52.704;13.814;2022-12-11T12:23:22;-0.20;99.90
49242;DHT22;35079;52.704;13.814;2022-12-11T12:34:12;-0.20;99.90
49242;DHT22;35079;52.704;13.814;2022-12-11T12:37:09;-0.10;99.90
49242;DHT22;35079;52.704;13.814;2022-12-11T12:39:50;-0.10;99.90
49242;DHT22;35079;52.704;13.814;2022-12-11T12:42:40;-0.10;99.90
49242;DHT22;35079;52.704;13.814;2022-12-11T12:45:28;0.00;99.90
49242;DHT22;35079;52.704;13.814;2022-12-11T12:47:55;0.00;99.90
49242;DHT22;35079;52.704;13.814;2022-12-11T12:50:23;0.00;99.90
49242;DHT22;35079;52.704;13.814;2022-12-11T12:52:50;0.00;99.90
49242;DHT22;35079;52.704;13.814;2022-12-11T12:55:23;0.00;99.90
49242;DHT22;35079;52.704;13.814;2022-12-11T12:57:55;-0.10;99.90
49242;DHT22;35079;52.704;13.814;2022-12-11T13:00:41;0.00;99.90
49242;DHT22;35079;52.704;13.814;2022-12-11T13:03:22;0.00;99.90
49242;DHT22;35079;52.704;13.814;2022-12-11T13:06:07;0.00;99.90
49242;DHT22;35079;52.704;13.814;2022-12-11T13:08:39;0.00;99.90
49242;DHT22;35079;52.704;13.814;2022-12-11T13:11:11;0.00;99.90
49242;DHT22;35079;52.704;13.814;2022-12-11T13:13:45;0.00;99.90
49242;DHT22;35079;52.704;13.814;2022-12-11T13:18:41;0.20;99.90
49242;DHT22;35079;52.704;13.814;2022-12-11T13:21:29;0.20;99.90
49242;DHT22;35079;52.704;13.814;2022-12-11T13:24:24;0.20;99.90
49242;DHT22;35079;52.704;13.814;2022-12-11T13:26:50;0.10;99.90
49242;DHT22;35079;52.704;13.814;2022-12-11T13:29:37;0.10;99.90
49242;DHT22;35079;52.704;13.814;2022-12-11T13:34:50;0.10;99.90
49242;DHT22;35079;52.704;13.814;2022-12-11T13:37:31;0.20;99.90
49242;DHT22;35079;52.704;13.814;2022-12-11T13:40:02;0.20;99.90
49242;DHT22;35079;52.704;13.814;2022-12-11T13:42:35;0.30;99.90
49242;DHT22;35079;52.704;13.814;2022-12-11T13:45:02;0.10;99.90
49242;DHT22;35079;52.704;13.814;2022-12-11T13:47:30;0.10;99.90
49242;DHT22;35079;52.704;13.814;2022-12-11T13:50:13;0.10;99.90
49242;DHT22;35079;52.704;13.814;2022-12-11T13:52:39;0.00;99.90
49242;DHT22;35079;52.704;13.814;2022-12-11T13:55:20;0.00;99.90
49242;DHT22;35079;52.704;13.814;2022-12-11T13:57:47;-0.10;99.90
49242;DHT22;35079;52.704;13.814;2022-12-11T14:00:22;0.00;99.90
49242;DHT22;35079;52.704;13.814;2022-12-11T14:02:49;-0.10;99.90
49242;DHT22;35079;52.704;13.814;2022-12-11T14:05:16;-0.10;99.90
49242;DHT22;35079;52.704;13.814;2022-12-11T14:07:47;-0.20;99.90
49242;DHT22;35079;52.704;13.814;2022-12-11T14:10:20;-0.10;99.90
49242;DHT22;35079;52.704;13.814;2022-12-11T14:13:17;-0.20;99.90
49242;DHT22;35079;52.704;13.814;2022-12-11T14:15:46;-0.20;99.90
49242;DHT22;35079;52.704;13.814;2022-12-11T14:18:16;-0.10;99.90
49242;DHT22;35079;52.704;13.814;2022-12-11T14:20:43;0.00;99.90
49242;DHT22;35079;52.704;13.814;2022-12-11T14:23:17;-0.20;99.90
49242;DHT22;35079;52.704;13.814;2022-12-11T14:25:54;-0.20;99.90
49242;DHT22;35079;52.704;13.814;2022-12-11T14:28:20;-0.20;99.90
49242;DHT22;35079;52.704;13.814;2022-12-11T14:30:49;-0.30;99.90
49242;DHT22;35079;52.704;13.814;2022-12-11T14:33:16;-0.30;99.90
49242;DHT22;35079;52.704;13.814;2022-12-11T14:35:44;-0.20;99.90
49242;DHT22;35079;52.704;13.814;2022-12-11T14:38:38;-0.20;99.90
49242;DHT22;35079;52.704;13.814;2022-12-11T14:41:09;-0.40;99.90
49242;DHT22;35079;52.704;13.814;2022-12-11T14:43:43;-0.40;99.90
49242;DHT22;35079;52.704;13.814;2022-12-11T14:46:18;-0.40;99.90
49242;DHT22;35079;52.704;13.814;2022-12-11T14:48:52;-0.30;99.90
49242;DHT22;35079;52.704;13.814;2022-12-11T14:51:21;-0.40;99.90
49242;DHT22;35079;52.704;13.814;2022-12-11T14:53:49;-0.40;99.90
49242;DHT22;35079;52.704;13.814;2022-12-11T14:56:22;-0.40;99.90
49242;DHT22;35079;52.704;13.814;2022-12-11T14:58:57;-0.40;99.90
49242;DHT22;35079;52.704;13.814;2022-12-11T15:01:35;-0.50;99.90
49242;DHT22;35079;52.704;13.814;2022-12-11T15:06:34;-0.40;99.90
49242;DHT22;35079;52.704;13.814;2022-12-11T15:12:10;-0.40;99.90
49242;DHT22;35079;52.704;13.814;2022-12-11T15:15:03;-0.40;99.90
49242;DHT22;35079;52.704;13.814;2022-12-11T15:17:27;-0.40;99.90
49242;DHT22;35079;52.704;13.814;2022-12-11T15:20:00;-0.40;99.90
49242;DHT22;35079;52.704;13.814;2022-12-11T15:22:29;-0.50;99.90
49242;DHT22;35079;52.704;13.814;2022-12-11T15:24:56;-0.50;99.90
49242;DHT22;35079;52.704;13.814;2022-12-11T15:27:36;-0.50;99.90
49242;DHT22;35079;52.704;13.814;2022-12-11T15:33:20;-0.60;99.90
49242;DHT22;35079;52.704;13.814;2022-12-11T15:35:59;-0.60;99.90
49242;DHT22;35079;52.704;13.814;2022-12-11T15:38:45;-0.60;99.90
49242;DHT22;35079;52.704;13.814;2022-12-11T15:41:17;-0.60;99.90
49242;DHT22;35079;52.704;13.814;2022-12-11T15:43:46;-0.60;99.90
49242;DHT22;35079;52.704;13.814;2022-12-11T15:46:12;-0.60;99.90
49242;DHT22;35079;52.704;13.814;2022-12-11T15:48:38;-0.60;99.90
49242;DHT22;35079;52.704;13.814;2022-12-11T15:51:03;-0.60;99.90
49242;DHT22;35079;52.704;13.814;2022-12-11T15:53:29;-0.60;99.90
49242;DHT22;35079;52.704;13.814;2022-12-11T15:55:56;-0.60;99.90
49242;DHT22;35079;52.704;13.814;2022-12-11T15:58:23;-0.60;99.90
49242;DHT22;35079;52.704;13.814;2022-12-11T16:00:52;-0.60;99.90
49242;DHT22;35079;52.704;13.814;2022-12-11T16:03:19;-0.60;99.90
49242;DHT22;35079;52.704;13.814;2022-12-11T16:05:45;-0.60;99.90
49242;DHT22;35079;52.704;13.814;2022-12-11T16:08:16;-0.70;99.90
49242;DHT22;35079;52.704;13.814;2022-12-11T16:10:43;-0.70;99.90
49242;DHT22;35079;52.704;13.814;2022-12-11T16:13:10;-0.60;99.90
49242;DHT22;35079;52.704;13.814;2022-12-11T16:15:38;-0.60;99.90
49242;DHT22;35079;52.704;13.814;2022-12-11T16:18:07;-0.60;99.90
49242;DHT22;35079;52.704;13.814;2022-12-11T16:20:34;-0.60;99.90
49242;DHT22;35079;52.704;13.814;2022-12-11T16:23:00;-0.60;99.90
49242;DHT22;35079;52.704;13.814;2022-12-11T16:25:26;-0.60;99.90
49242;DHT22;35079;52.704;13.814;2022-12-11T16:27:58;-0.60;99.90
49242;DHT22;35079;52.704;13.814;2022-12-11T16:30:27;-0.60;99.90
49242;DHT22;35079;52.704;13.814;2022-12-11T16:32:53;-0.70;99.90
49242;DHT22;35079;52.704;13.814;2022-12-11T16:35:19;-0.60;99.90
49242;DHT22;35079;52.704;13.814;2022-12-11T16:37:51;-0.60;99.90
49242;DHT22;35079;52.704;13.814;2022-12-11T16:40:17;-0.60;99.90
49242;DHT22;35079;52.704;13.814;2022-12-11T16:42:43;-0.70;99.90
49242;DHT22;35079;52.704;13.814;2022-12-11T16:45:13;-0.70;99.90
49242;DHT22;35079;52.704;13.814;2022-12-11T16:47:40;-0.70;99.90